MGY47 SBFN-SBFN
Flight info
| Callsign | MGY47 |
|---|---|
| Flight time | 1h 2m |
| Altitude | 5500 |
| Route | DCT |
| Aircraft | BE58/L-SDE3/STD |
Departure
| Time | 2026-04-27 18:45 |
|---|---|
| Airport | Fernando de Noronha Airport (SBFN) |
Arrival
| Time | 2026-04-27 19:48 |
|---|---|
| Airport | Fernando de Noronha Airport (SBFN) |
| Time | Latitude | Longitude | Altitude | Speed | Heading |
|---|---|---|---|---|---|
| 2026-04-27 18:41 | -3.85598 | -32.42913 | 188 ft | 0 kts | 5° |
| 2026-04-27 18:44 | -3.85586 | -32.42912 | 188 ft | 7 kts | 2° |
| 2026-04-27 18:44 | -3.85505 | -32.42940 | 189 ft | 12 kts | 323° |
| 2026-04-27 18:44 | -3.85433 | -32.42983 | 190 ft | 11 kts | 359° |
| 2026-04-27 18:44 | -3.85408 | -32.42885 | 187 ft | 40 kts | 94° |
| 2026-04-27 18:45 | -3.85448 | -32.42348 | 192 ft | 102 kts | 98° |
| 2026-04-27 18:45 | -3.85465 | -32.41626 | 523 ft | 104 kts | 95° |
| 2026-04-27 18:45 | -3.85504 | -32.40817 | 723 ft | 122 kts | 98° |
| 2026-04-27 18:45 | -3.85561 | -32.40002 | 1122 ft | 115 kts | 99° |
| 2026-04-27 18:46 | -3.85720 | -32.39229 | 1387 ft | 119 kts | 109° |
| 2026-04-27 18:46 | -3.85934 | -32.38478 | 1819 ft | 107 kts | 109° |
| 2026-04-27 18:46 | -3.86139 | -32.37754 | 2122 ft | 108 kts | 110° |
| 2026-04-27 18:46 | -3.86343 | -32.37035 | 2430 ft | 108 kts | 110° |
| 2026-04-27 18:47 | -3.86774 | -32.36442 | 2692 ft | 108 kts | 152° |
| 2026-04-27 18:47 | -3.87489 | -32.36376 | 2986 ft | 110 kts | 195° |
| 2026-04-27 18:47 | -3.88127 | -32.36800 | 3295 ft | 111 kts | 216° |
| 2026-04-27 18:47 | -3.88700 | -32.37320 | 3572 ft | 112 kts | 217° |
| 2026-04-27 18:48 | -3.89268 | -32.37848 | 3852 ft | 112 kts | 217° |
| 2026-04-27 18:48 | -3.89836 | -32.38377 | 4125 ft | 112 kts | 217° |
| 2026-04-27 18:48 | -3.90405 | -32.38906 | 4396 ft | 112 kts | 217° |
| 2026-04-27 18:48 | -3.90972 | -32.39433 | 4660 ft | 112 kts | 217° |
| 2026-04-27 18:49 | -3.91541 | -32.39960 | 4915 ft | 112 kts | 217° |
| 2026-04-27 18:49 | -3.92114 | -32.40490 | 5170 ft | 111 kts | 217° |
| 2026-04-27 18:49 | -3.92680 | -32.41013 | 5410 ft | 112 kts | 217° |
| 2026-04-27 18:49 | -3.93244 | -32.41534 | 5655 ft | 111 kts | 217° |
| 2026-04-27 18:50 | -3.93819 | -32.42064 | 5890 ft | 111 kts | 217° |
| 2026-04-27 18:50 | -3.94383 | -32.42584 | 6125 ft | 111 kts | 218° |
| 2026-04-27 18:50 | -3.94717 | -32.43294 | 6321 ft | 120 kts | 262° |
| 2026-04-27 18:50 | -3.94504 | -32.44067 | 6115 ft | 115 kts | 306° |
| 2026-04-27 18:51 | -3.93852 | -32.44500 | 5980 ft | 116 kts | 349° |
| 2026-04-27 18:51 | -3.93050 | -32.44507 | 5868 ft | 115 kts | 8° |
| 2026-04-27 18:51 | -3.92254 | -32.44417 | 5753 ft | 116 kts | 10° |
| 2026-04-27 18:51 | -3.91450 | -32.44320 | 5646 ft | 117 kts | 10° |
| 2026-04-27 18:52 | -3.90633 | -32.44220 | 5541 ft | 117 kts | 10° |
| 2026-04-27 18:52 | -3.89839 | -32.44331 | 5440 ft | 121 kts | 328° |
| 2026-04-27 18:52 | -3.89304 | -32.44972 | 5498 ft | 130 kts | 287° |
| 2026-04-27 18:53 | -3.88831 | -32.46882 | 5548 ft | 151 kts | 279° |
| 2026-04-27 18:53 | -3.88603 | -32.47943 | 5515 ft | 160 kts | 279° |
| 2026-04-27 18:53 | -3.88370 | -32.49038 | 5515 ft | 163 kts | 279° |
| 2026-04-27 18:53 | -3.88211 | -32.50171 | 5460 ft | 164 kts | 259° |
| 2026-04-27 18:54 | -3.88740 | -32.51110 | 5463 ft | 154 kts | 213° |
| 2026-04-27 18:54 | -3.89703 | -32.51505 | 5527 ft | 148 kts | 193° |
| 2026-04-27 18:54 | -3.90711 | -32.51761 | 5485 ft | 152 kts | 191° |
| 2026-04-27 18:54 | -3.91737 | -32.51942 | 5471 ft | 151 kts | 173° |
| 2026-04-27 18:55 | -3.92629 | -32.51419 | 5467 ft | 149 kts | 125° |
| 2026-04-27 18:55 | -3.92941 | -32.50451 | 5513 ft | 150 kts | 103° |
| 2026-04-27 18:55 | -3.93097 | -32.49402 | 5497 ft | 152 kts | 101° |
| 2026-04-27 18:55 | -3.93239 | -32.48346 | 5503 ft | 153 kts | 101° |
| 2026-04-27 18:56 | -3.93382 | -32.47277 | 5484 ft | 154 kts | 99° |
| 2026-04-27 18:56 | -3.93516 | -32.46206 | 5479 ft | 155 kts | 99° |
| 2026-04-27 18:56 | -3.93654 | -32.45138 | 5476 ft | 155 kts | 99° |
| 2026-04-27 18:56 | -3.93792 | -32.44062 | 5474 ft | 155 kts | 99° |
| 2026-04-27 18:57 | -3.93929 | -32.43002 | 5474 ft | 154 kts | 99° |
| 2026-04-27 18:57 | -3.94068 | -32.41924 | 5473 ft | 154 kts | 99° |
| 2026-04-27 18:57 | -3.94205 | -32.40858 | 5474 ft | 154 kts | 99° |
| 2026-04-27 18:57 | -3.94338 | -32.39786 | 5472 ft | 154 kts | 98° |
| 2026-04-27 18:58 | -3.94467 | -32.38725 | 5470 ft | 154 kts | 98° |
| 2026-04-27 18:58 | -3.94594 | -32.37657 | 5468 ft | 154 kts | 97° |
| 2026-04-27 18:58 | -3.94717 | -32.36577 | 5459 ft | 154 kts | 97° |
| 2026-04-27 18:58 | -3.94795 | -32.35520 | 5449 ft | 156 kts | 83° |
| 2026-04-27 18:59 | -3.94131 | -32.34673 | 5517 ft | 159 kts | 24° |
| 2026-04-27 18:59 | -3.93042 | -32.34444 | 5486 ft | 166 kts | 6° |
| 2026-04-27 18:59 | -3.91888 | -32.34306 | 5494 ft | 165 kts | 5° |
| 2026-04-27 18:59 | -3.90741 | -32.34175 | 5458 ft | 167 kts | 11° |
| 2026-04-27 19:00 | -3.89586 | -32.34015 | 5501 ft | 165 kts | 9° |
| 2026-04-27 19:00 | -3.88445 | -32.33869 | 5473 ft | 168 kts | 9° |
| 2026-04-27 19:00 | -3.87276 | -32.33741 | 5481 ft | 169 kts | 0° |
| 2026-04-27 19:00 | -3.86212 | -32.34206 | 5431 ft | 171 kts | 312° |
| 2026-04-27 19:01 | -3.85772 | -32.35248 | 5492 ft | 162 kts | 268° |
| 2026-04-27 19:01 | -3.85974 | -32.36339 | 5537 ft | 157 kts | 250° |
| 2026-04-27 19:01 | -3.86289 | -32.37409 | 5461 ft | 163 kts | 249° |
| 2026-04-27 19:01 | -3.86493 | -32.38523 | 5442 ft | 168 kts | 272° |
| 2026-04-27 19:02 | -3.86264 | -32.39660 | 5525 ft | 163 kts | 280° |
| 2026-04-27 19:02 | -3.85991 | -32.40769 | 5458 ft | 169 kts | 281° |
| 2026-04-27 19:02 | -3.85705 | -32.41909 | 5500 ft | 166 kts | 281° |
| 2026-04-27 19:02 | -3.85421 | -32.43042 | 5464 ft | 169 kts | 281° |
| 2026-04-27 19:03 | -3.84905 | -32.44089 | 5389 ft | 175 kts | 316° |
| 2026-04-27 19:03 | -3.83875 | -32.44647 | 5556 ft | 164 kts | 338° |
| 2026-04-27 19:03 | -3.82770 | -32.45078 | 5407 ft | 174 kts | 340° |
| 2026-04-27 19:03 | -3.82033 | -32.45358 | 5497 ft | 168 kts | 339° |
| 2026-04-27 19:04 | -3.80562 | -32.45917 | 5453 ft | 172 kts | 340° |
| 2026-04-27 19:04 | -3.79448 | -32.46346 | 5490 ft | 170 kts | 339° |
| 2026-04-27 19:04 | -3.78335 | -32.46772 | 5467 ft | 171 kts | 339° |
| 2026-04-27 19:04 | -3.77221 | -32.47192 | 5485 ft | 170 kts | 340° |
| 2026-04-27 19:05 | -3.76110 | -32.47612 | 5473 ft | 171 kts | 340° |
| 2026-04-27 19:05 | -3.74988 | -32.48038 | 5479 ft | 171 kts | 340° |
| 2026-04-27 19:05 | -3.73888 | -32.48454 | 5475 ft | 171 kts | 340° |
| 2026-04-27 19:05 | -3.72706 | -32.48538 | 5381 ft | 172 kts | 21° |
| 2026-04-27 19:06 | -3.71864 | -32.47840 | 5525 ft | 155 kts | 61° |
| 2026-04-27 19:06 | -3.71359 | -32.46865 | 5495 ft | 158 kts | 68° |
| 2026-04-27 19:06 | -3.70904 | -32.45880 | 5515 ft | 157 kts | 69° |
| 2026-04-27 19:06 | -3.70513 | -32.44853 | 5443 ft | 159 kts | 87° |
| 2026-04-27 19:07 | -3.70853 | -32.43853 | 5482 ft | 148 kts | 135° |
| 2026-04-27 19:07 | -3.71753 | -32.43413 | 5476 ft | 149 kts | 167° |
| 2026-04-27 19:07 | -3.72769 | -32.43325 | 5518 ft | 148 kts | 179° |
| 2026-04-27 19:07 | -3.73822 | -32.43369 | 5484 ft | 151 kts | 181° |
| 2026-04-27 19:08 | -3.74866 | -32.43425 | 5499 ft | 151 kts | 181° |
| 2026-04-27 19:08 | -3.75915 | -32.43481 | 5480 ft | 152 kts | 181° |
| 2026-04-27 19:08 | -3.76971 | -32.43538 | 5484 ft | 152 kts | 181° |
| 2026-04-27 19:08 | -3.78029 | -32.43592 | 5473 ft | 152 kts | 179° |
| 2026-04-27 19:09 | -3.79089 | -32.43582 | 5478 ft | 151 kts | 177° |
| 2026-04-27 19:09 | -3.80137 | -32.43562 | 5473 ft | 152 kts | 177° |
| 2026-04-27 19:09 | -3.81197 | -32.43538 | 5476 ft | 151 kts | 175° |
| 2026-04-27 19:09 | -3.82259 | -32.43507 | 5470 ft | 152 kts | 176° |
| 2026-04-27 19:10 | -3.83300 | -32.43480 | 5475 ft | 151 kts | 176° |
| 2026-04-27 19:10 | -3.84355 | -32.43420 | 5473 ft | 151 kts | 173° |
| 2026-04-27 19:10 | -3.85394 | -32.43337 | 5475 ft | 151 kts | 173° |
| 2026-04-27 19:10 | -3.86094 | -32.43279 | 5473 ft | 151 kts | 173° |
| 2026-04-27 19:11 | -3.87407 | -32.43739 | 5404 ft | 160 kts | 225° |
| 2026-04-27 19:11 | -3.87791 | -32.44757 | 5478 ft | 162 kts | 264° |
| 2026-04-27 19:11 | -3.87627 | -32.45894 | 5516 ft | 162 kts | 278° |
| 2026-04-27 19:11 | -3.87376 | -32.47007 | 5468 ft | 168 kts | 279° |
| 2026-04-27 19:12 | -3.87112 | -32.48128 | 5501 ft | 165 kts | 280° |
| 2026-04-27 19:12 | -3.86846 | -32.49256 | 5470 ft | 168 kts | 280° |
| 2026-04-27 19:12 | -3.86576 | -32.50393 | 5487 ft | 167 kts | 282° |
| 2026-04-27 19:12 | -3.85894 | -32.51356 | 5386 ft | 175 kts | 328° |
| 2026-04-27 19:13 | -3.84774 | -32.51584 | 5506 ft | 165 kts | 9° |
| 2026-04-27 19:13 | -3.83790 | -32.51040 | 5442 ft | 161 kts | 56° |
| 2026-04-27 19:13 | -3.83478 | -32.50039 | 5476 ft | 153 kts | 97° |
| 2026-04-27 19:13 | -3.83778 | -32.49042 | 5537 ft | 146 kts | 110° |
| 2026-04-27 19:14 | -3.84091 | -32.48044 | 5446 ft | 155 kts | 110° |
| 2026-04-27 19:14 | -3.84410 | -32.47030 | 5503 ft | 150 kts | 110° |
| 2026-04-27 19:14 | -3.84728 | -32.46011 | 5459 ft | 154 kts | 110° |
| 2026-04-27 19:14 | -3.85047 | -32.44991 | 5490 ft | 152 kts | 110° |
| 2026-04-27 19:15 | -3.85364 | -32.43975 | 5467 ft | 154 kts | 110° |
| 2026-04-27 19:15 | -3.85682 | -32.42961 | 5482 ft | 153 kts | 110° |
| 2026-04-27 19:15 | -3.86192 | -32.42050 | 5380 ft | 156 kts | 142° |
| 2026-04-27 19:15 | -3.87186 | -32.41818 | 5519 ft | 147 kts | 187° |
| 2026-04-27 19:16 | -3.88077 | -32.42375 | 5411 ft | 161 kts | 232° |
| 2026-04-27 19:16 | -3.88322 | -32.43064 | 5502 ft | 159 kts | 261° |
| 2026-04-27 19:16 | -3.88113 | -32.44562 | 5520 ft | 164 kts | 279° |
| 2026-04-27 19:16 | -3.87863 | -32.45676 | 5502 ft | 166 kts | 279° |
| 2026-04-27 19:17 | -3.87607 | -32.46802 | 5506 ft | 166 kts | 279° |
| 2026-04-27 19:17 | -3.87349 | -32.47944 | 5483 ft | 168 kts | 279° |
| 2026-04-27 19:17 | -3.87025 | -32.49067 | 5443 ft | 172 kts | 297° |
| 2026-04-27 19:17 | -3.86103 | -32.49801 | 5453 ft | 170 kts | 345° |
| 2026-04-27 19:18 | -3.84962 | -32.49772 | 5448 ft | 168 kts | 21° |
| 2026-04-27 19:18 | -3.84099 | -32.49043 | 5466 ft | 158 kts | 64° |
| 2026-04-27 19:18 | -3.83913 | -32.47996 | 5487 ft | 152 kts | 97° |
| 2026-04-27 19:18 | -3.84021 | -32.46959 | 5521 ft | 151 kts | 100° |
| 2026-04-27 19:19 | -3.84287 | -32.45933 | 5474 ft | 152 kts | 112° |
| 2026-04-27 19:19 | -3.84669 | -32.44959 | 5508 ft | 151 kts | 114° |
| 2026-04-27 19:19 | -3.85099 | -32.43980 | 5477 ft | 153 kts | 116° |
| 2026-04-27 19:19 | -3.85530 | -32.43018 | 5484 ft | 152 kts | 116° |
| 2026-04-27 19:20 | -3.85967 | -32.42047 | 5476 ft | 153 kts | 116° |
| 2026-04-27 19:20 | -3.86403 | -32.41077 | 5476 ft | 153 kts | 116° |
| 2026-04-27 19:20 | -3.86842 | -32.40100 | 5475 ft | 152 kts | 116° |
| 2026-04-27 19:20 | -3.87276 | -32.39135 | 5474 ft | 152 kts | 116° |
| 2026-04-27 19:21 | -3.87439 | -32.38085 | 5383 ft | 162 kts | 79° |
| 2026-04-27 19:21 | -3.87051 | -32.37069 | 5547 ft | 154 kts | 70° |
| 2026-04-27 19:21 | -3.86301 | -32.36250 | 5405 ft | 168 kts | 25° |
| 2026-04-27 19:21 | -3.85209 | -32.35992 | 5468 ft | 169 kts | 12° |
| 2026-04-27 19:22 | -3.84028 | -32.35794 | 5500 ft | 165 kts | 11° |
| 2026-04-27 19:22 | -3.82902 | -32.35616 | 5437 ft | 171 kts | 11° |
| 2026-04-27 19:22 | -3.81725 | -32.35425 | 5493 ft | 166 kts | 11° |
| 2026-04-27 19:22 | -3.80565 | -32.35433 | 5383 ft | 176 kts | 341° |
| 2026-04-27 19:23 | -3.79541 | -32.35985 | 5554 ft | 165 kts | 324° |
| 2026-04-27 19:23 | -3.78578 | -32.36687 | 5415 ft | 174 kts | 323° |
| 2026-04-27 19:23 | -3.77636 | -32.37389 | 5510 ft | 168 kts | 322° |
| 2026-04-27 19:23 | -3.76681 | -32.38101 | 5458 ft | 172 kts | 322° |
| 2026-04-27 19:24 | -3.75728 | -32.38812 | 5490 ft | 170 kts | 321° |
| 2026-04-27 19:24 | -3.74771 | -32.39526 | 5470 ft | 171 kts | 322° |
| 2026-04-27 19:24 | -3.73809 | -32.40243 | 5480 ft | 171 kts | 323° |
| 2026-04-27 19:24 | -3.72693 | -32.40609 | 5406 ft | 173 kts | 358° |
| 2026-04-27 19:25 | -3.71537 | -32.40682 | 5481 ft | 170 kts | 4° |
| 2026-04-27 19:25 | -3.70350 | -32.40537 | 5490 ft | 166 kts | 10° |
| 2026-04-27 19:25 | -3.69209 | -32.40368 | 5455 ft | 171 kts | 11° |
| 2026-04-27 19:25 | -3.68048 | -32.40190 | 5485 ft | 167 kts | 11° |
| 2026-04-27 19:26 | -3.66886 | -32.40015 | 5464 ft | 170 kts | 11° |
| 2026-04-27 19:26 | -3.65720 | -32.39836 | 5485 ft | 168 kts | 11° |
| 2026-04-27 19:26 | -3.64575 | -32.39663 | 5470 ft | 170 kts | 11° |
| 2026-04-27 19:26 | -3.63408 | -32.39485 | 5482 ft | 169 kts | 11° |
| 2026-04-27 19:27 | -3.62243 | -32.39307 | 5473 ft | 169 kts | 11° |
| 2026-04-27 19:27 | -3.61089 | -32.39131 | 5479 ft | 169 kts | 11° |
| 2026-04-27 19:27 | -3.59924 | -32.38953 | 5474 ft | 169 kts | 11° |
| 2026-04-27 19:27 | -3.58751 | -32.38774 | 5478 ft | 169 kts | 11° |
| 2026-04-27 19:28 | -3.57594 | -32.38597 | 5475 ft | 169 kts | 11° |
| 2026-04-27 19:28 | -3.56433 | -32.38420 | 5477 ft | 169 kts | 11° |
| 2026-04-27 19:28 | -3.55273 | -32.38241 | 5476 ft | 169 kts | 11° |
| 2026-04-27 19:28 | -3.54102 | -32.38060 | 5476 ft | 169 kts | 12° |
| 2026-04-27 19:29 | -3.53106 | -32.37490 | 5386 ft | 166 kts | 57° |
| 2026-04-27 19:29 | -3.52838 | -32.36480 | 5512 ft | 150 kts | 99° |
| 2026-04-27 19:29 | -3.53345 | -32.35587 | 5439 ft | 150 kts | 145° |
| 2026-04-27 19:29 | -3.54324 | -32.35377 | 5503 ft | 148 kts | 188° |
| 2026-04-27 19:30 | -3.55322 | -32.35659 | 5542 ft | 148 kts | 194° |
| 2026-04-27 19:30 | -3.56324 | -32.35964 | 5478 ft | 154 kts | 194° |
| 2026-04-27 19:30 | -3.57336 | -32.36276 | 5507 ft | 152 kts | 194° |
| 2026-04-27 19:30 | -3.58353 | -32.36588 | 5476 ft | 154 kts | 194° |
| 2026-04-27 19:31 | -3.59378 | -32.36903 | 5488 ft | 153 kts | 194° |
| 2026-04-27 19:31 | -3.60400 | -32.37217 | 5477 ft | 154 kts | 194° |
| 2026-04-27 19:31 | -3.61421 | -32.37530 | 5479 ft | 154 kts | 194° |
| 2026-04-27 19:31 | -3.62439 | -32.37842 | 5474 ft | 154 kts | 194° |
| 2026-04-27 19:32 | -3.63466 | -32.38157 | 5476 ft | 153 kts | 194° |
| 2026-04-27 19:32 | -3.64492 | -32.38467 | 5443 ft | 157 kts | 194° |
| 2026-04-27 19:32 | -3.65539 | -32.38760 | 5493 ft | 155 kts | 194° |
| 2026-04-27 19:32 | -3.66590 | -32.39052 | 5498 ft | 158 kts | 194° |
| 2026-04-27 19:33 | -3.67663 | -32.39349 | 5523 ft | 158 kts | 192° |
| 2026-04-27 19:33 | -3.68379 | -32.39531 | 5512 ft | 160 kts | 193° |
| 2026-04-27 19:33 | -3.69838 | -32.39910 | 5527 ft | 160 kts | 193° |
| 2026-04-27 19:33 | -3.70937 | -32.40194 | 5515 ft | 162 kts | 193° |
| 2026-04-27 19:34 | -3.72039 | -32.40478 | 5515 ft | 162 kts | 193° |
| 2026-04-27 19:34 | -3.73138 | -32.40763 | 5509 ft | 163 kts | 193° |
| 2026-04-27 19:34 | -3.74243 | -32.41048 | 5507 ft | 163 kts | 193° |
| 2026-04-27 19:34 | -3.75340 | -32.41330 | 5503 ft | 163 kts | 193° |
| 2026-04-27 19:35 | -3.76444 | -32.41614 | 5504 ft | 163 kts | 192° |
| 2026-04-27 19:35 | -3.77549 | -32.41821 | 5503 ft | 163 kts | 188° |
| 2026-04-27 19:35 | -3.78664 | -32.42010 | 5503 ft | 163 kts | 188° |
| 2026-04-27 19:35 | -3.79777 | -32.42197 | 5503 ft | 163 kts | 188° |
| 2026-04-27 19:36 | -3.80902 | -32.42372 | 5503 ft | 163 kts | 187° |
| 2026-04-27 19:36 | -3.82016 | -32.42538 | 5503 ft | 162 kts | 187° |
| 2026-04-27 19:36 | -3.83135 | -32.42706 | 5503 ft | 162 kts | 187° |
| 2026-04-27 19:36 | -3.84253 | -32.42873 | 5503 ft | 162 kts | 187° |
| 2026-04-27 19:37 | -3.85369 | -32.43040 | 5503 ft | 162 kts | 187° |
| 2026-04-27 19:37 | -3.86495 | -32.43144 | 5469 ft | 164 kts | 170° |
| 2026-04-27 19:37 | -3.87419 | -32.42567 | 5478 ft | 157 kts | 123° |
| 2026-04-27 19:37 | -3.87646 | -32.41536 | 5489 ft | 156 kts | 79° |
| 2026-04-27 19:38 | -3.87110 | -32.40617 | 5547 ft | 151 kts | 47° |
| 2026-04-27 19:38 | -3.86365 | -32.39872 | 5484 ft | 158 kts | 44° |
| 2026-04-27 19:38 | -3.85572 | -32.39108 | 5529 ft | 154 kts | 44° |
| 2026-04-27 19:38 | -3.84798 | -32.38368 | 5491 ft | 158 kts | 44° |
| 2026-04-27 19:39 | -3.84003 | -32.37605 | 5519 ft | 156 kts | 44° |
| 2026-04-27 19:39 | -3.83065 | -32.37061 | 5406 ft | 164 kts | 8° |
| 2026-04-27 19:39 | -3.82027 | -32.37364 | 5547 ft | 156 kts | 323° |
| 2026-04-27 19:39 | -3.81475 | -32.38306 | 5451 ft | 165 kts | 278° |
| 2026-04-27 19:40 | -3.81736 | -32.39368 | 5540 ft | 159 kts | 235° |
| 2026-04-27 19:40 | -3.82509 | -32.40164 | 5560 ft | 159 kts | 220° |
| 2026-04-27 19:40 | -3.83352 | -32.40908 | 5519 ft | 164 kts | 220° |
| 2026-04-27 19:40 | -3.84199 | -32.41655 | 5529 ft | 163 kts | 220° |
| 2026-04-27 19:41 | -3.85060 | -32.42411 | 5512 ft | 165 kts | 220° |
| 2026-04-27 19:41 | -3.85918 | -32.43165 | 5511 ft | 164 kts | 220° |
| 2026-04-27 19:41 | -3.86891 | -32.43765 | 5420 ft | 168 kts | 190° |
| 2026-04-27 19:41 | -3.87966 | -32.43535 | 5526 ft | 155 kts | 143° |
| 2026-04-27 19:42 | -3.88548 | -32.42658 | 5459 ft | 158 kts | 100° |
| 2026-04-27 19:42 | -3.88327 | -32.41625 | 5521 ft | 152 kts | 56° |
| 2026-04-27 19:42 | -3.87637 | -32.40840 | 5549 ft | 153 kts | 46° |
| 2026-04-27 19:42 | -3.86869 | -32.40067 | 5517 ft | 156 kts | 45° |
| 2026-04-27 19:43 | -3.86104 | -32.39307 | 5532 ft | 156 kts | 45° |
| 2026-04-27 19:43 | -3.85317 | -32.38526 | 5509 ft | 157 kts | 44° |
| 2026-04-27 19:43 | -3.84537 | -32.37762 | 5508 ft | 157 kts | 44° |
| 2026-04-27 19:43 | -3.83740 | -32.36978 | 5502 ft | 158 kts | 44° |
| 2026-04-27 19:44 | -3.82951 | -32.36206 | 5502 ft | 157 kts | 41° |
| 2026-04-27 19:44 | -3.81920 | -32.35880 | 5427 ft | 162 kts | 351° |
| 2026-04-27 19:44 | -3.81021 | -32.36451 | 5537 ft | 159 kts | 306° |
| 2026-04-27 19:44 | -3.80805 | -32.37540 | 5496 ft | 162 kts | 256° |
| 2026-04-27 19:45 | -3.81377 | -32.38455 | 5576 ft | 158 kts | 226° |
| 2026-04-27 19:45 | -3.82164 | -32.39267 | 5526 ft | 163 kts | 224° |
| 2026-04-27 19:45 | -3.82869 | -32.40013 | 5182 ft | 140 kts | 232° |
| 2026-04-27 19:45 | -3.83461 | -32.40713 | 4692 ft | 126 kts | 223° |
| 2026-04-27 19:46 | -3.84071 | -32.41289 | 4274 ft | 116 kts | 223° |
| 2026-04-27 19:46 | -3.84603 | -32.41890 | 3796 ft | 115 kts | 230° |
| 2026-04-27 19:46 | -3.85098 | -32.42457 | 3441 ft | 108 kts | 226° |
| 2026-04-27 19:46 | -3.85606 | -32.42991 | 3021 ft | 107 kts | 223° |
| 2026-04-27 19:47 | -3.86157 | -32.43428 | 2723 ft | 97 kts | 208° |
| 2026-04-27 19:47 | -3.86702 | -32.43821 | 2328 ft | 90 kts | 245° |
| 2026-04-27 19:47 | -3.86649 | -32.44456 | 1516 ft | 117 kts | 337° |
| 2026-04-27 19:47 | -3.86076 | -32.44243 | 1073 ft | 101 kts | 54° |
| 2026-04-27 19:48 | -3.85671 | -32.43679 | 616 ft | 99 kts | 56° |
| 2026-04-27 19:48 | -3.85418 | -32.43122 | 307 ft | 81 kts | 85° |
| 2026-04-27 19:48 | -3.85432 | -32.42660 | 182 ft | 25 kts | 96° |
| 2026-04-27 19:48 | -3.85443 | -32.42640 | 182 ft | 0 kts | 211° |
| 2026-04-27 19:49 | -3.85444 | -32.42640 | 182 ft | 0 kts | 212° |
| 2026-04-27 19:49 | -3.85444 | -32.42641 | 182 ft | 0 kts | 212° |